ADDS METAR Data INFO
IDs: Format: Raw Decoded Include TAF

Data at: 2302 UTC 16 Jan 2018

KOLZ 162255Z AUTO 30011KT 10SM SCT006 M15/M16 A3061 RMK AO2
KOLZ 162235Z AUTO 31011KT 10SM FEW006 M14/M16 A3061 RMK AO2
KOLZ 162215Z AUTO 30011KT 10SM CLR M14/M15 A3060 RMK AO2
KOLZ 162155Z AUTO 30012KT 10SM CLR M13/M15 A3060 RMK AO2
KOLZ 162135Z AUTO 32012KT 10SM SCT005 M13/M15 A3060 RMK AO2
KOLZ 162115Z AUTO 32012KT 9SM SCT005 BKN013 M13/M14 A3059 RMK AO2
KOLZ 162055Z AUTO 32011KT 10SM BKN013 M13/M14 A3059 RMK AO2
KOLZ 162035Z AUTO 30012KT 8SM -SN FEW003 FEW007 BKN013 M13/M14 A3059 RMK AO2
KOLZ 162015Z AUTO 31014KT 10SM -SN BKN013 M13/M15 A3059 RMK AO2
KOLZ 161955Z AUTO 32013KT 10SM SCT013 M13/M15 A3059 RMK AO2
KOLZ 161935Z AUTO 32013KT 10SM BKN013 M13/M15 A3059 RMK AO2
KOLZ 161915Z AUTO 32013KT 10SM OVC013 M13/M15 A3059 RMK AO2
KOLZ 161855Z AUTO 31013KT 10SM OVC013 M13/M15 A3059 RMK AO2
KOLZ 161835Z AUTO 31013KT 10SM FEW006 BKN013 M13/M15 A3060 RMK AO2
KOLZ 161815Z AUTO 32013KT 10SM CLR M13/M15 A3060 RMK AO2
KOLZ 161755Z AUTO 33014KT 10SM CLR M13/M15 A3060 RMK AO2
KOLZ 161735Z AUTO 32013KT 10SM CLR M14/M15 A3061 RMK AO2
KOLZ 161715Z AUTO 33011KT 10SM FEW006 M14/M16 A3062 RMK AO2
KOLZ 161655Z AUTO 33013G18KT 10SM FEW002 SCT007 M14/M16 A3062 RMK AO2
KOLZ 161635Z AUTO 34013G19KT 9SM SCT002 SCT007 BKN012 M14/M16 A3062 RMK AO2
KOLZ 161615Z AUTO 33015KT 9SM -SN BKN011 M14/M15 A3062 RMK AO2
KOLZ 161555Z AUTO 33012KT 9SM OVC011 M15/M15 A3061 RMK AO2
KOLZ 161535Z AUTO 34013KT 9SM OVC010 M15/M16 A3061 RMK AO2
KOLZ 161515Z AUTO 33015KT 9SM OVC010 M15/M15 A3060 RMK AO2
KOLZ 161455Z AUTO 33013KT 8SM -SN OVC010 M15/M15 A3059 RMK AO2
KOLZ 161435Z AUTO 32012KT 9SM -SN BKN010 BKN025 OVC050 M15/M15 A3058 RMK AO2
KOLZ 161415Z AUTO 33011KT 6SM -SN FEW004 BKN009 OVC050 M15/M16 A3057 RMK AO2
KOLZ 161355Z AUTO 33012KT 9SM -SN BKN008 OVC011 M15/M16 A3057 RMK AO2
KOLZ 161335Z AUTO 32013KT 10SM SCT004 OVC011 M16/M17 A3056 RMK AO2
KOLZ 161315Z AUTO 32012KT 10SM OVC004 M16/M17 A3056 RMK AO2
KOLZ 161255Z AUTO 32012KT 9SM OVC004 M16/M17 A3055 RMK AO2
KOLZ 161235Z AUTO 31013KT 10SM OVC004 M16/M17 A3055 RMK AO2
KOLZ 161215Z AUTO 31012KT 9SM -SN OVC003 M16/M17 A3055 RMK AO2
KOLZ 161155Z AUTO 31010G17KT 10SM BKN006 BKN019 OVC045 M16/M17 A3054 RMK AO2
KOLZ 161135Z AUTO 33012KT 10SM SCT003 BKN007 OVC045 M16/M17 A3054 RMK AO2
KOLZ 161115Z AUTO 32010KT 10SM SCT004 BKN017 OVC046 M16/M17 A3053 RMK AO2
KOLZ 161055Z AUTO 32013KT 10SM FEW003 OVC016 M16/M17 A3053 RMK AO2
KOLZ 161035Z AUTO 32012KT 10SM OVC014 M16/M17 A3052 RMK AO2
KOLZ 161015Z AUTO 32011KT 10SM -SN OVC014 M16/M17 A3052 RMK AO2
KOLZ 160955Z AUTO 32012KT 10SM OVC012 M17/M18 A3051 RMK AO2
KOLZ 160935Z AUTO 32011KT 10SM OVC012 M17/M18 A3050 RMK AO2
KOLZ 160915Z AUTO 32014KT 10SM -SN OVC012 M18/M19 A3049 RMK AO2
KOLZ 160855Z AUTO 32012KT 10SM OVC013 M18/M20 A3049 RMK AO2
KOLZ 160835Z AUTO 32014KT 10SM -SN OVC012 M18/M20 A3049 RMK AO2
KOLZ 160815Z AUTO 32016KT 7SM -SN BKN005 OVC013 M19/M20 A3049 RMK AO2
KOLZ 160755Z AUTO 32016KT 10SM -SN OVC005 M19/M20 A3048 RMK AO2
KOLZ 160735Z AUTO 32015G21KT 10SM OVC005 M19/M21 A3048 RMK AO2
KOLZ 160715Z AUTO 31015KT 10SM -SN BKN004 OVC011 M20/M21 A3048 RMK AO2
KOLZ 160655Z AUTO 31014G19KT 8SM -SN SCT006 OVC011 M20/M21 A3048 RMK AO2
KOLZ 160635Z AUTO 31013KT 10SM -SN BKN005 OVC011 M20/M22 A3048 RMK AO2
KOLZ 160615Z AUTO 31016KT 10SM -SN OVC004 M20/M22 A3047 RMK AO2
KOLZ 160555Z AUTO 31016G21KT 10SM OVC004 M20/M22 A3047 RMK AO2
KOLZ 160535Z AUTO 31017KT 10SM -SN OVC005 M20/M22 A3047 RMK AO2
KOLZ 160515Z AUTO 31015KT 10SM SCT006 BKN026 OVC037 M20/M22 A3048 RMK AO2
KOLZ 160455Z AUTO 31016KT 10SM BKN005 OVC036 M19/M21 A3047 RMK AO2
KOLZ 160435Z AUTO 31015KT 10SM -SN OVC005 M19/M21 A3046 RMK AO2
KOLZ 160415Z AUTO 31015KT 9SM -SN OVC004 M19/M20 A3046 RMK AO2
KOLZ 160355Z AUTO 30014KT 9SM OVC005 M19/M20 A3046 RMK AO2
KOLZ 160335Z AUTO 31013KT 10SM OVC006 M19/M20 A3046 RMK AO2
KOLZ 160315Z AUTO 31014KT OVC006 M18/M20 A3045 RMK AO2
KOLZ 160255Z AUTO 31014KT 10SM OVC006 M18/M20 A3045 RMK AO2
KOLZ 160235Z AUTO 31015KT 5SM -SN OVC006 M18/M20 A3045 RMK AO2
KOLZ 160215Z AUTO 31013KT 6SM -SN OVC006 M18/M19 A3044 RMK AO2
KOLZ 160155Z AUTO 30015G20KT 6SM -SN OVC005 M18/M19 A3044 RMK AO2
KOLZ 160135Z AUTO 30014G19KT 10SM OVC006 M18/M20 A3044 RMK AO2
KOLZ 160115Z AUTO 30014KT 10SM OVC006 M18/M20 A3043 RMK AO2
KOLZ 160055Z AUTO 31014KT 10SM OVC007 M18/M20 A3043 RMK AO2
KOLZ 160035Z AUTO 31015KT 10SM BKN008 OVC012 M18/M20 A3042 RMK AO2
KOLZ 160015Z AUTO 31016KT 10SM OVC009 M18/M20 A3042 RMK AO2
KOLZ 152355Z AUTO 32018KT 10SM OVC008 M18/M19 A3041 RMK AO2
KOLZ 152335Z AUTO 31016G24KT 7SM OVC008 M17/M19 A3040 RMK AO2
KOLZ 152315Z AUTO 31018KT 8SM BKN010 OVC021 M17/M19 A3039 RMK AO2
KOLZ 152255Z AUTO 31014G21KT 9SM BKN010 M17/M19 A3038 RMK AO2
KOLZ 152235Z AUTO 31017KT 5SM BR BKN011 M17/M18 A3037 RMK AO2
KOLZ 152215Z AUTO 31020KT 3SM -SN FEW009 FEW014 FEW029 M16/M18 A3036 RMK AO2
KOLZ 152155Z AUTO 31018G26KT 3SM BR FEW007 FEW015 FEW029 M16/M18 A3036 RMK AO2
KOLZ 152135Z AUTO 32020KT 2SM -SN SCT015 SCT020 M16/M17 A3035 RMK AO2
KOLZ 152115Z AUTO 31020G27KT 3SM -SN BKN015 SCT020 M16/M17 A3033 RMK AO2
KOLZ 152055Z AUTO 31017G27KT 5SM BR BKN016 BKN021 M16/M18 A3032 RMK AO2
KOLZ 152035Z AUTO 32020G29KT 3SM BR BKN014 M16/M18 A3031 RMK AO2
KOLZ 152015Z AUTO 32021G28KT 2SM BR BKN014 M16/M17 A3029 RMK AO2
KOLZ 151955Z AUTO 31027G32KT 1 3/4SM BR FEW010 SCT015 M16/M17 A3028 RMK AO2
KOLZ 151935Z AUTO 32025G30KT 1 1/4SM -SN CLR M15/M17 A3028 RMK AO2
KOLZ 151915Z AUTO 32022KT 1 3/4SM BR SCT018 M15/M16 A3028 RMK AO2
KOLZ 151855Z AUTO 32021G28KT 1 1/4SM -SN SCT014 SCT019 M15/M16 A3028 RMK AO2
KOLZ 151835Z AUTO 32022G29KT 1 1/2SM -SN FEW008 BKN015 BKN021 M15/M16 A3028 RMK AO2
KOLZ 151815Z AUTO 32020G27KT 2SM -SN FEW014 FEW021 M15/M17 A3028 RMK AO2
KOLZ 151755Z AUTO 31023G28KT 2SM BR SCT014 BKN070 M15/M17 A3028 RMK AO2
KOLZ 151735Z AUTO 31021G26KT 2 1/2SM BR FEW015 BKN070 M15/M17 A3028 RMK AO2
KOLZ 151715Z AUTO 32023G31KT 2SM BR BKN065 M15/M17 A3027 RMK AO2
KOLZ 151655Z AUTO 31022G27KT 2SM BR FEW065 M15/M16 A3027 RMK AO2
KOLZ 151635Z AUTO 31019G26KT 1 3/4SM BR CLR M15/M16 A3027 RMK AO2
KOLZ 151615Z AUTO 30019G26KT 2SM -SN CLR M15/M16 A3026 RMK AO2
KOLZ 151555Z AUTO 31021KT 1 3/4SM -SN CLR M15/M16 A3025 RMK AO2
KOLZ 151535Z AUTO 31020G25KT 2 1/2SM -SN FEW031 M15/M17 A3024 RMK AO2
KOLZ 151515Z AUTO 31020G25KT 4SM -SN FEW032 SCT040 M16/M17 A3023 RMK AO2
KOLZ 151455Z AUTO 30021KT 4SM BR FEW010 OVC039 M15/M17 A3023 RMK AO2
KOLZ 151435Z AUTO 30021KT 4SM -SN SCT010 OVC038 M15/M17 A3021 RMK AO2
KOLZ 151415Z AUTO 31020KT 4SM BR BKN011 OVC039 M15/M16 A3021 RMK AO2
KOLZ 151355Z AUTO 31021G27KT 5SM BR BKN010 BKN013 OVC040 M15/M16 A3020 RMK AO2
KOLZ 151335Z AUTO 31017G24KT 5SM BR BKN012 OVC039 M15/M16 A3019 RMK AO2
KOLZ 151315Z AUTO 31019G26KT 4SM BR BKN010 OVC036 M14/M16 A3018 RMK AO2
KOLZ 151255Z AUTO 31020G28KT 3SM -SN SCT010 OVC034 M14/M15 A3017 RMK AO2
KOLZ 151235Z AUTO 31020G25KT 4SM -SN FEW008 FEW012 OVC031 M14/M15 A3017 RMK AO2
KOLZ 151215Z AUTO 31020G25KT 5SM -SN FEW012 OVC033 M14/M15 A3016 RMK AO2
KOLZ 151155Z AUTO 31016G23KT 6SM -SN FEW008 OVC034 M14/M14 A3015 RMK AO2
KOLZ 151135Z AUTO 31017G23KT 5SM -SN FEW009 OVC033 M14/M14 A3015 RMK AO2
KOLZ 151115Z AUTO 32017G24KT 5SM -SN FEW008 FEW012 OVC032 M14/M15 A3014 RMK AO2